Traverse City, Michigan
Current Conditions -  °F | °C
As of 8:53 AM on Friday 24 Oct 2014 (Local Time) from KTVC Reporting Station
Haze Haze  
Wind Chill: 50°   Ceiling: 2700
Heat Index: 50°   Visibility: 5mi
Dew Point: 47°   Wind: 3mph
Humidity: 89%   Direction: NA
Pressure: 30"   Gusts: NA
Location:  44.76°N, 85.61°W
Report Text: KTVC 241253Z VRB03KT 5SM BR OVC027 10/08 A3000 RMK AO2 DZE50 SLP162 P0000 T01000083
Loading
Personal Weather Stations






























Interactive Weather Map
Tropical Storm Tracking
New forecast layout! Learn more

10-Day Weather Forecast

Advertisements
Track Severe Weather on mobile